sensor_id;sensor_type;location;lat;lon;timestamp;pressure;altitude;pressure_sealevel;temperature;humidity
67377;BME280;54261;46.086;6.588;2024-03-22T00:02:16;93167.72;;;8.12;44.11
67377;BME280;54261;46.086;6.588;2024-03-22T00:07:18;93189.63;;;7.89;44.68
67377;BME280;54261;46.086;6.588;2024-03-22T00:12:19;93186.41;;;7.87;45.05
67377;BME280;54261;46.086;6.588;2024-03-22T00:17:20;93180.47;;;8.20;44.22
67377;BME280;54261;46.086;6.588;2024-03-22T00:22:21;93181.44;;;8.05;44.58
67377;BME280;54261;46.086;6.588;2024-03-22T00:27:22;93178.31;;;8.22;44.37
67377;BME280;54261;46.086;6.588;2024-03-22T00:32:23;93173.31;;;8.15;44.41
67377;BME280;54261;46.086;6.588;2024-03-22T00:37:24;93177.28;;;8.18;44.34
67377;BME280;54261;46.086;6.588;2024-03-22T00:42:25;93173.47;;;8.24;43.66
67377;BME280;54261;46.086;6.588;2024-03-22T00:47:27;93179.66;;;8.19;44.32
67377;BME280;54261;46.086;6.588;2024-03-22T00:52:28;93164.81;;;8.32;43.94
67377;BME280;54261;46.086;6.588;2024-03-22T00:57:29;93173.28;;;8.40;43.46
67377;BME280;54261;46.086;6.588;2024-03-22T01:02:31;93169.97;;;8.48;43.18
67377;BME280;54261;46.086;6.588;2024-03-22T01:07:31;93169.75;;;8.44;43.03
67377;BME280;54261;46.086;6.588;2024-03-22T01:12:32;93168.09;;;8.48;42.77
67377;BME280;54261;46.086;6.588;2024-03-22T01:17:34;93146.00;;;8.18;42.64
67377;BME280;54261;46.086;6.588;2024-03-22T01:22:35;93157.91;;;8.07;42.62
67377;BME280;54261;46.086;6.588;2024-03-22T01:27:37;93163.44;;;7.86;44.22
67377;BME280;54261;46.086;6.588;2024-03-22T01:32:38;93163.97;;;7.59;44.60
67377;BME280;54261;46.086;6.588;2024-03-22T01:37:39;93154.38;;;7.28;44.97
67377;BME280;54261;46.086;6.588;2024-03-22T01:42:41;93157.63;;;7.20;45.24
67377;BME280;54261;46.086;6.588;2024-03-22T01:47:44;93147.28;;;7.13;44.84
67377;BME280;54261;46.086;6.588;2024-03-22T01:52:46;93153.50;;;7.03;45.01
67377;BME280;54261;46.086;6.588;2024-03-22T01:57:49;93145.59;;;6.88;45.81
67377;BME280;54261;46.086;6.588;2024-03-22T02:02:52;93143.53;;;7.14;44.64
67377;BME280;54261;46.086;6.588;2024-03-22T02:07:53;93138.47;;;7.42;44.35
67377;BME280;54261;46.086;6.588;2024-03-22T02:12:54;93132.06;;;7.14;44.46
67377;BME280;54261;46.086;6.588;2024-03-22T02:17:55;93131.97;;;6.89;45.17
67377;BME280;54261;46.086;6.588;2024-03-22T02:22:56;93121.13;;;7.10;45.03
67377;BME280;54261;46.086;6.588;2024-03-22T02:27:57;93116.59;;;7.10;44.70
67377;BME280;54261;46.086;6.588;2024-03-22T02:32:58;93119.69;;;7.23;44.54
67377;BME280;54261;46.086;6.588;2024-03-22T02:37:59;93128.78;;;7.22;44.14
67377;BME280;54261;46.086;6.588;2024-03-22T02:42:59;93110.09;;;6.92;44.55
67377;BME280;54261;46.086;6.588;2024-03-22T02:48:01;93096.94;;;7.01;44.33
67377;BME280;54261;46.086;6.588;2024-03-22T02:53:02;93099.00;;;6.70;45.26
67377;BME280;54261;46.086;6.588;2024-03-22T02:58:04;93076.34;;;6.67;45.30
67377;BME280;54261;46.086;6.588;2024-03-22T03:03:06;93084.50;;;6.86;44.54
67377;BME280;54261;46.086;6.588;2024-03-22T03:08:07;93080.09;;;6.66;45.11
67377;BME280;54261;46.086;6.588;2024-03-22T03:13:08;93080.31;;;6.70;45.21
67377;BME280;54261;46.086;6.588;2024-03-22T03:18:09;93076.34;;;6.67;45.27
67377;BME280;54261;46.086;6.588;2024-03-22T03:23:10;93060.13;;;6.63;45.71
67377;BME280;54261;46.086;6.588;2024-03-22T03:28:11;93058.75;;;6.66;45.34
67377;BME280;54261;46.086;6.588;2024-03-22T03:33:13;93060.47;;;6.86;46.13
67377;BME280;54261;46.086;6.588;2024-03-22T03:38:14;93053.75;;;6.94;45.42
67377;BME280;54261;46.086;6.588;2024-03-22T03:43:15;93049.00;;;7.15;45.53
67377;BME280;54261;46.086;6.588;2024-03-22T03:48:16;93041.47;;;6.93;45.42
67377;BME280;54261;46.086;6.588;2024-03-22T03:53:17;93044.31;;;7.07;45.28
67377;BME280;54261;46.086;6.588;2024-03-22T03:58:18;93045.75;;;7.23;44.80
67377;BME280;54261;46.086;6.588;2024-03-22T04:03:19;93037.06;;;7.07;45.30
67377;BME280;54261;46.086;6.588;2024-03-22T04:08:20;93024.56;;;7.03;45.47
67377;BME280;54261;46.086;6.588;2024-03-22T04:13:20;93027.16;;;7.13;45.23
67377;BME280;54261;46.086;6.588;2024-03-22T04:18:21;93023.13;;;7.16;45.16
67377;BME280;54261;46.086;6.588;2024-03-22T04:23:23;93014.88;;;7.36;44.71
67377;BME280;54261;46.086;6.588;2024-03-22T04:28:25;93017.44;;;7.47;44.51
67377;BME280;54261;46.086;6.588;2024-03-22T04:33:27;93020.69;;;7.44;44.37
67377;BME280;54261;46.086;6.588;2024-03-22T04:38:28;93021.94;;;7.51;44.33
67377;BME280;54261;46.086;6.588;2024-03-22T04:43:29;93024.03;;;7.30;45.13
67377;BME280;54261;46.086;6.588;2024-03-22T04:48:30;93018.81;;;7.69;44.97
67377;BME280;54261;46.086;6.588;2024-03-22T04:53:31;93022.84;;;7.90;43.88
67377;BME280;54261;46.086;6.588;2024-03-22T04:58:32;93029.88;;;8.05;42.94
67377;BME280;54261;46.086;6.588;2024-03-22T05:03:33;93016.06;;;8.17;42.85
67377;BME280;54261;46.086;6.588;2024-03-22T05:08:33;92999.25;;;8.17;42.37
67377;BME280;54261;46.086;6.588;2024-03-22T05:13:34;92990.78;;;8.10;42.50
67377;BME280;54261;46.086;6.588;2024-03-22T05:18:35;93018.09;;;8.45;42.82
67377;BME280;54261;46.086;6.588;2024-03-22T05:23:36;93023.56;;;8.54;42.89
67377;BME280;54261;46.086;6.588;2024-03-22T05:28:37;93026.88;;;8.45;43.23
67377;BME280;54261;46.086;6.588;2024-03-22T05:33:38;93018.44;;;8.38;43.19
67377;BME280;54261;46.086;6.588;2024-03-22T05:38:39;93001.41;;;8.34;43.03
67377;BME280;54261;46.086;6.588;2024-03-22T05:43:40;93015.97;;;8.61;42.30
67377;BME280;54261;46.086;6.588;2024-03-22T05:48:41;93014.03;;;9.00;41.28
67377;BME280;54261;46.086;6.588;2024-03-22T05:53:42;93015.69;;;8.96;42.14
67377;BME280;54261;46.086;6.588;2024-03-22T05:58:43;93008.78;;;8.75;43.58
67377;BME280;54261;46.086;6.588;2024-03-22T06:03:44;93011.41;;;8.61;43.01
67377;BME280;54261;46.086;6.588;2024-03-22T06:08:44;92997.16;;;8.99;41.70
67377;BME280;54261;46.086;6.588;2024-03-22T06:13:46;93012.31;;;9.37;40.60
67377;BME280;54261;46.086;6.588;2024-03-22T06:18:47;93005.81;;;9.10;42.78
67377;BME280;54261;46.086;6.588;2024-03-22T06:23:52;93001.47;;;9.14;42.22
67377;BME280;54261;46.086;6.588;2024-03-22T06:28:53;92992.53;;;9.19;42.41
67377;BME280;54261;46.086;6.588;2024-03-22T06:33:54;93012.31;;;9.37;42.00
67377;BME280;54261;46.086;6.588;2024-03-22T06:38:56;93016.97;;;9.31;42.79
67377;BME280;54261;46.086;6.588;2024-03-22T06:43:57;93006.72;;;9.05;41.97
67377;BME280;54261;46.086;6.588;2024-03-22T06:48:58;93000.28;;;9.48;41.40
67377;BME280;54261;46.086;6.588;2024-03-22T06:53:59;93000.09;;;9.45;41.76
67377;BME280;54261;46.086;6.588;2024-03-22T06:59:00;93006.44;;;9.77;41.19
67377;BME280;54261;46.086;6.588;2024-03-22T07:04:01;93000.00;;;9.64;41.25
67377;BME280;54261;46.086;6.588;2024-03-22T07:09:03;93006.81;;;9.14;41.59
67377;BME280;54261;46.086;6.588;2024-03-22T07:14:04;93000.41;;;9.29;41.21
67377;BME280;54261;46.086;6.588;2024-03-22T07:19:05;93005.44;;;9.59;40.27
67377;BME280;54261;46.086;6.588;2024-03-22T07:24:06;93009.03;;;9.40;40.29
67377;BME280;54261;46.086;6.588;2024-03-22T07:29:07;92994.13;;;9.48;39.75
67377;BME280;54261;46.086;6.588;2024-03-22T07:34:08;92999.47;;;9.62;38.86
67377;BME280;54261;46.086;6.588;2024-03-22T07:39:09;93003.66;;;9.68;39.05
67377;BME280;54261;46.086;6.588;2024-03-22T07:44:10;93002.16;;;9.76;39.60
67377;BME280;54261;46.086;6.588;2024-03-22T07:49:12;93006.13;;;10.07;39.85
67377;BME280;54261;46.086;6.588;2024-03-22T07:54:13;93013.63;;;10.55;38.40
67377;BME280;54261;46.086;6.588;2024-03-22T07:59:14;92999.66;;;10.67;38.45
67377;BME280;54261;46.086;6.588;2024-03-22T08:04:15;92994.91;;;11.10;37.70
67377;BME280;54261;46.086;6.588;2024-03-22T08:09:16;92996.47;;;11.42;36.77
67377;BME280;54261;46.086;6.588;2024-03-22T08:14:19;92991.56;;;11.04;37.50
67377;BME280;54261;46.086;6.588;2024-03-22T08:19:19;92975.84;;;11.69;36.52
67377;BME280;54261;46.086;6.588;2024-03-22T08:24:20;92979.84;;;11.90;36.76
67377;BME280;54261;46.086;6.588;2024-03-22T08:29:21;92984.38;;;13.39;34.02
67377;BME280;54261;46.086;6.588;2024-03-22T08:34:22;92975.81;;;12.63;35.15
67377;BME280;54261;46.086;6.588;2024-03-22T08:39:23;92980.22;;;12.85;35.86
67377;BME280;54261;46.086;6.588;2024-03-22T08:44:25;92948.41;;;13.95;34.20
67377;BME280;54261;46.086;6.588;2024-03-22T08:49:26;92966.78;;;11.56;37.93
67377;BME280;54261;46.086;6.588;2024-03-22T08:54:27;92958.69;;;12.06;37.42
67377;BME280;54261;46.086;6.588;2024-03-22T08:59:27;92967.19;;;11.90;37.62
67377;BME280;54261;46.086;6.588;2024-03-22T09:04:28;92972.50;;;11.64;38.07
67377;BME280;54261;46.086;6.588;2024-03-22T09:09:29;92975.41;;;11.85;36.91
67377;BME280;54261;46.086;6.588;2024-03-22T09:14:30;92977.94;;;10.78;38.50
67377;BME280;54261;46.086;6.588;2024-03-22T09:19:31;92974.31;;;10.82;38.03
67377;BME280;54261;46.086;6.588;2024-03-22T09:24:32;92975.50;;;13.29;35.79
67377;BME280;54261;46.086;6.588;2024-03-22T09:29:33;92971.88;;;13.25;33.89
67377;BME280;54261;46.086;6.588;2024-03-22T09:34:34;92963.19;;;13.89;35.16
67377;BME280;54261;46.086;6.588;2024-03-22T09:39:35;92966.91;;;16.64;30.04
67377;BME280;54261;46.086;6.588;2024-03-22T09:44:37;92945.13;;;14.10;32.78
67377;BME280;54261;46.086;6.588;2024-03-22T09:49:41;92950.75;;;12.89;35.98
67377;BME280;54261;46.086;6.588;2024-03-22T09:54:46;92939.38;;;13.91;33.34
67377;BME280;54261;46.086;6.588;2024-03-22T09:59:47;92936.41;;;13.14;34.69
67377;BME280;54261;46.086;6.588;2024-03-22T10:04:51;92932.44;;;12.29;36.76
67377;BME280;54261;46.086;6.588;2024-03-22T10:09:52;92937.53;;;13.52;34.94
67377;BME280;54261;46.086;6.588;2024-03-22T10:14:53;92941.66;;;13.50;34.71
67377;BME280;54261;46.086;6.588;2024-03-22T10:19:54;92921.09;;;13.96;32.05
67377;BME280;54261;46.086;6.588;2024-03-22T10:24:55;92928.47;;;12.35;34.96
67377;BME280;54261;46.086;6.588;2024-03-22T10:30:02;92913.19;;;16.26;30.01
67377;BME280;54261;46.086;6.588;2024-03-22T10:35:03;92911.34;;;19.37;26.04
67377;BME280;54261;46.086;6.588;2024-03-22T10:40:08;92918.53;;;21.78;22.62
67377;BME280;54261;46.086;6.588;2024-03-22T10:45:11;92904.66;;;21.97;22.11
67377;BME280;54261;46.086;6.588;2024-03-22T10:50:13;92890.84;;;20.89;22.99
67377;BME280;54261;46.086;6.588;2024-03-22T10:55:26;92866.41;;;15.22;29.25
67377;BME280;54261;46.086;6.588;2024-03-22T11:00:33;92887.00;;;18.19;25.87
67377;BME280;54261;46.086;6.588;2024-03-22T11:05:44;92886.41;;;17.26;26.00
67377;BME280;54261;46.086;6.588;2024-03-22T11:10:46;92875.75;;;18.80;24.06
67377;BME280;54261;46.086;6.588;2024-03-22T11:15:47;92880.56;;;17.91;26.13
67377;BME280;54261;46.086;6.588;2024-03-22T11:20:49;92877.56;;;18.32;26.64
67377;BME280;54261;46.086;6.588;2024-03-22T11:25:50;92878.63;;;16.63;26.73
67377;BME280;54261;46.086;6.588;2024-03-22T11:30:52;92866.50;;;18.84;24.29
67377;BME280;54261;46.086;6.588;2024-03-22T11:35:53;92876.84;;;21.84;21.42
67377;BME280;54261;46.086;6.588;2024-03-22T11:40:55;92865.53;;;20.54;22.82
67377;BME280;54261;46.086;6.588;2024-03-22T11:45:57;92859.94;;;15.76;27.35
67377;BME280;54261;46.086;6.588;2024-03-22T11:50:58;92850.16;;;15.59;25.84
67377;BME280;54261;46.086;6.588;2024-03-22T11:56:02;92823.03;;;13.28;29.94
67377;BME280;54261;46.086;6.588;2024-03-22T12:01:04;92842.84;;;16.13;24.22
67377;BME280;54261;46.086;6.588;2024-03-22T12:06:05;92823.84;;;18.65;21.89
67377;BME280;54261;46.086;6.588;2024-03-22T12:11:10;92814.16;;;17.49;22.71
67377;BME280;54261;46.086;6.588;2024-03-22T12:16:12;92809.03;;;18.19;22.64
67377;BME280;54261;46.086;6.588;2024-03-22T12:21:12;92797.97;;;17.37;22.83
67377;BME280;54261;46.086;6.588;2024-03-22T12:26:13;92790.97;;;19.47;21.59
67377;BME280;54261;46.086;6.588;2024-03-22T12:31:17;92770.00;;;15.14;24.96
67377;BME280;54261;46.086;6.588;2024-03-22T12:36:18;92776.78;;;13.69;26.95
67377;BME280;54261;46.086;6.588;2024-03-22T12:41:18;92764.75;;;14.00;27.58
67377;BME280;54261;46.086;6.588;2024-03-22T12:46:19;92764.78;;;19.09;21.68
67377;BME280;54261;46.086;6.588;2024-03-22T12:51:20;92747.72;;;20.72;19.95
67377;BME280;54261;46.086;6.588;2024-03-22T12:56:21;92746.41;;;22.55;17.47
67377;BME280;54261;46.086;6.588;2024-03-22T13:01:22;92741.41;;;18.57;20.79
67377;BME280;54261;46.086;6.588;2024-03-22T13:06:23;92731.28;;;19.89;20.71
67377;BME280;54261;46.086;6.588;2024-03-22T13:11:25;92721.25;;;18.58;21.14
67377;BME280;54261;46.086;6.588;2024-03-22T13:16:26;92717.16;;;23.25;18.08
67377;BME280;54261;46.086;6.588;2024-03-22T13:21:27;92671.88;;;18.10;21.21
67377;BME280;54261;46.086;6.588;2024-03-22T13:26:28;92689.53;;;19.16;21.50
67377;BME280;54261;46.086;6.588;2024-03-22T13:31:29;92687.75;;;25.04;16.41
67377;BME280;54261;46.086;6.588;2024-03-22T13:36:30;92668.94;;;24.49;16.96
67377;BME280;54261;46.086;6.588;2024-03-22T13:41:33;92655.72;;;23.41;16.92
67377;BME280;54261;46.086;6.588;2024-03-22T13:46:34;92640.56;;;21.24;18.90
67377;BME280;54261;46.086;6.588;2024-03-22T13:51:42;92641.34;;;22.24;18.61
67377;BME280;54261;46.086;6.588;2024-03-22T13:56:43;92635.16;;;21.31;18.99
67377;BME280;54261;46.086;6.588;2024-03-22T14:01:44;92610.91;;;21.15;19.45
67377;BME280;54261;46.086;6.588;2024-03-22T14:06:46;92602.44;;;19.09;21.57
67377;BME280;54261;46.086;6.588;2024-03-22T14:11:47;92598.53;;;19.75;20.83
67377;BME280;54261;46.086;6.588;2024-03-22T14:16:49;92595.78;;;19.37;22.43
67377;BME280;54261;46.086;6.588;2024-03-22T14:21:50;92583.81;;;18.30;23.66
67377;BME280;54261;46.086;6.588;2024-03-22T14:26:51;92570.09;;;19.04;22.67
67377;BME280;54261;46.086;6.588;2024-03-22T14:31:51;92564.88;;;19.53;22.95
67377;BME280;54261;46.086;6.588;2024-03-22T14:36:52;92556.59;;;19.83;22.20
67377;BME280;54261;46.086;6.588;2024-03-22T14:41:53;92539.22;;;21.14;21.22
67377;BME280;54261;46.086;6.588;2024-03-22T14:46:55;92527.75;;;22.16;20.82
67377;BME280;54261;46.086;6.588;2024-03-22T14:51:59;92527.75;;;22.41;20.73
67377;BME280;54261;46.086;6.588;2024-03-22T14:57:00;92528.03;;;23.83;18.97
67377;BME280;54261;46.086;6.588;2024-03-22T15:02:00;92526.41;;;21.33;21.65
67377;BME280;54261;46.086;6.588;2024-03-22T15:07:01;92518.59;;;21.24;21.47
67377;BME280;54261;46.086;6.588;2024-03-22T15:12:02;92506.84;;;20.32;21.89
67377;BME280;54261;46.086;6.588;2024-03-22T15:17:03;92503.56;;;20.75;22.75
67377;BME280;54261;46.086;6.588;2024-03-22T15:22:04;92500.16;;;19.77;23.01
67377;BME280;54261;46.086;6.588;2024-03-22T15:27:05;92509.66;;;20.50;22.81
67377;BME280;54261;46.086;6.588;2024-03-22T15:32:08;92506.47;;;20.37;22.90
67377;BME280;54261;46.086;6.588;2024-03-22T15:37:09;92508.34;;;20.25;22.91
67377;BME280;54261;46.086;6.588;2024-03-22T15:42:09;92500.03;;;22.13;21.99
67377;BME280;54261;46.086;6.588;2024-03-22T15:47:10;92503.03;;;19.50;23.33
67377;BME280;54261;46.086;6.588;2024-03-22T15:52:11;92496.78;;;21.35;22.28
67377;BME280;54261;46.086;6.588;2024-03-22T15:57:14;92475.94;;;20.80;22.49
67377;BME280;54261;46.086;6.588;2024-03-22T16:02:15;92484.84;;;20.06;23.55
67377;BME280;54261;46.086;6.588;2024-03-22T16:07:16;92481.09;;;19.35;24.32
67377;BME280;54261;46.086;6.588;2024-03-22T16:12:17;92490.00;;;18.37;25.11
67377;BME280;54261;46.086;6.588;2024-03-22T16:17:19;92486.38;;;19.55;23.84
67377;BME280;54261;46.086;6.588;2024-03-22T16:22:19;92478.34;;;20.22;22.75
67377;BME280;54261;46.086;6.588;2024-03-22T16:27:21;92479.81;;;19.63;23.43
67377;BME280;54261;46.086;6.588;2024-03-22T16:32:22;92480.47;;;19.94;24.20
67377;BME280;54261;46.086;6.588;2024-03-22T16:37:23;92475.78;;;20.47;23.52
67377;BME280;54261;46.086;6.588;2024-03-22T16:42:24;92479.81;;;19.63;23.66
67377;BME280;54261;46.086;6.588;2024-03-22T16:47:25;92483.88;;;19.84;23.29
67377;BME280;54261;46.086;6.588;2024-03-22T16:52:26;92480.47;;;19.49;23.65
67377;BME280;54261;46.086;6.588;2024-03-22T16:57:28;92485.81;;;19.38;24.05
67377;BME280;54261;46.086;6.588;2024-03-22T17:02:29;92485.00;;;19.79;23.00
67377;BME280;54261;46.086;6.588;2024-03-22T17:07:30;92477.38;;;19.51;23.41
67377;BME280;54261;46.086;6.588;2024-03-22T17:12:31;92478.41;;;19.01;24.55
67377;BME280;54261;46.086;6.588;2024-03-22T17:17:32;92471.59;;;18.53;24.47
67377;BME280;54261;46.086;6.588;2024-03-22T17:22:34;92471.81;;;19.02;24.27
67377;BME280;54261;46.086;6.588;2024-03-22T17:27:35;92463.22;;;19.34;23.94
67377;BME280;54261;46.086;6.588;2024-03-22T17:32:36;92475.31;;;18.14;24.60
67377;BME280;54261;46.086;6.588;2024-03-22T17:37:37;92464.47;;;18.72;24.11
67377;BME280;54261;46.086;6.588;2024-03-22T17:42:38;92486.47;;;18.90;23.37
67377;BME280;54261;46.086;6.588;2024-03-22T17:47:39;92488.84;;;18.34;23.90
67377;BME280;54261;46.086;6.588;2024-03-22T17:52:40;92438.59;;;17.47;24.40
67377;BME280;54261;46.086;6.588;2024-03-22T17:57:41;92485.84;;;17.22;24.16
67377;BME280;54261;46.086;6.588;2024-03-22T18:02:42;92472.00;;;16.49;24.24
67377;BME280;54261;46.086;6.588;2024-03-22T18:07:43;92486.97;;;15.91;24.48
67377;BME280;54261;46.086;6.588;2024-03-22T18:12:44;92482.16;;;16.52;23.32
67377;BME280;54261;46.086;6.588;2024-03-22T18:17:45;92496.31;;;16.09;23.75
67377;BME280;54261;46.086;6.588;2024-03-22T18:22:46;92487.78;;;15.75;24.46
67377;BME280;54261;46.086;6.588;2024-03-22T18:27:48;92487.06;;;16.11;23.85
67377;BME280;54261;46.086;6.588;2024-03-22T18:32:49;92492.38;;;15.91;24.12
67377;BME280;54261;46.086;6.588;2024-03-22T18:37:49;92484.25;;;15.75;24.15
67377;BME280;54261;46.086;6.588;2024-03-22T18:42:50;92497.38;;;15.41;24.71
67377;BME280;54261;46.086;6.588;2024-03-22T18:47:51;92499.53;;;15.06;27.66
67377;BME280;54261;46.086;6.588;2024-03-22T18:52:52;92502.09;;;15.15;26.37
67377;BME280;54261;46.086;6.588;2024-03-22T18:57:54;92503.94;;;14.82;27.03
67377;BME280;54261;46.086;6.588;2024-03-22T19:02:55;92509.84;;;14.60;27.38
67377;BME280;54261;46.086;6.588;2024-03-22T19:07:57;92482.88;;;14.35;27.46
67377;BME280;54261;46.086;6.588;2024-03-22T19:12:59;92508.78;;;14.23;27.75
67377;BME280;54261;46.086;6.588;2024-03-22T19:17:59;92505.13;;;13.66;29.26
67377;BME280;54261;46.086;6.588;2024-03-22T19:23:02;92512.16;;;14.08;28.74
67377;BME280;54261;46.086;6.588;2024-03-22T19:28:05;92505.91;;;13.79;28.88
67377;BME280;54261;46.086;6.588;2024-03-22T19:33:06;92497.75;;;13.41;30.30
67377;BME280;54261;46.086;6.588;2024-03-22T19:38:07;92516.81;;;12.90;31.24
67377;BME280;54261;46.086;6.588;2024-03-22T19:43:08;92515.53;;;13.09;30.76
67377;BME280;54261;46.086;6.588;2024-03-22T19:48:09;92513.91;;;12.74;30.61
67377;BME280;54261;46.086;6.588;2024-03-22T19:53:10;92511.56;;;12.51;30.92
67377;BME280;54261;46.086;6.588;2024-03-22T19:58:11;92502.84;;;12.33;32.33
67377;BME280;54261;46.086;6.588;2024-03-22T20:03:12;92504.19;;;11.97;33.30
67377;BME280;54261;46.086;6.588;2024-03-22T20:08:13;92506.53;;;11.59;34.14
67377;BME280;54261;46.086;6.588;2024-03-22T20:13:13;92513.13;;;11.71;33.83
67377;BME280;54261;46.086;6.588;2024-03-22T20:18:14;92521.63;;;11.43;35.07
67377;BME280;54261;46.086;6.588;2024-03-22T20:23:16;92513.69;;;11.55;33.36
67377;BME280;54261;46.086;6.588;2024-03-22T20:28:17;92510.28;;;11.37;34.50
67377;BME280;54261;46.086;6.588;2024-03-22T20:33:18;92508.25;;;11.25;33.06
